Time;durP1;ratioP1;P1;durP2;ratioP2;P2;SDS_P1;SDS_P2;PMS_P1;PMS_P2;Temp;Humidity;BMP_temperature;BMP_pressure;BME280_temperature;BME280_humidity;BME280_pressure;Samples;Min_cycle;Max_cycle;Signal;HPM_P1;HPM_P2
2021/03/28 00:01:23;;;;;;;3.97;1.10;;;7.10;82.30;;;;;;5092987;28;20040;-69
2021/03/28 00:03:59;;;;;;;2.23;0.97;;;7.10;82.30;;;;;;5085074;28;20048;-68
2021/03/28 00:06:37;;;;;;;4.13;0.87;;;7.10;82.20;;;;;;5086907;28;20032;-68
2021/03/28 00:09:06;;;;;;;6.30;1.13;;;7.10;82.10;;;;;;5086963;28;20558;-68
2021/03/28 00:11:53;;;;;;;6.40;1.13;;;7.10;82.30;;;;;;5084468;28;20500;-68
2021/03/28 00:14:40;;;;;;;3.83;1.10;;;7.10;82.20;;;;;;5084997;28;20053;-68
2021/03/28 00:17:49;;;;;;;3.33;1.07;;;7.10;82.50;;;;;;5091028;28;20048;-68
2021/03/28 00:20:15;;;;;;;4.33;1.30;;;7.00;82.60;;;;;;5115643;27;20052;-74
2021/03/28 00:23:08;;;;;;;5.07;1.20;;;7.00;82.70;;;;;;5092550;28;20055;-74
2021/03/28 00:25:38;;;;;;;;;;;7.00;82.80;;;;;;5091621;28;20047;-73
2021/03/28 00:28:22;;;;;;;4.63;1.17;;;7.00;83.30;;;;;;5089245;28;19920;-76
2021/03/28 00:30:51;;;;;;;3.90;0.87;;;7.00;82.70;;;;;;5078609;28;20105;-73
2021/03/28 00:33:24;;;;;;;4.07;1.00;;;7.00;82.90;;;;;;5040602;28;20063;-75
2021/03/28 00:35:56;;;;;;;4.47;0.70;;;7.00;82.80;;;;;;5091469;28;20503;-74
2021/03/28 00:38:30;;;;;;;2.35;0.80;;;7.00;82.90;;;;;;5078611;28;20044;-78
2021/03/28 00:41:12;;;;;;;2.13;0.57;;;7.00;83.00;;;;;;5080951;28;20040;-76
2021/03/28 00:43:49;;;;;;;1.57;0.50;;;7.00;83.10;;;;;;5089245;28;20051;-76
2021/03/28 00:47:02;;;;;;;2.03;0.83;;;7.00;83.20;;;;;;5085467;28;20072;-76
2021/03/28 00:49:41;;;;;;;2.30;0.73;;;7.00;83.10;;;;;;5078506;28;20040;-76
2021/03/28 00:52:16;;;;;;;3.92;0.68;;;7.00;83.20;;;;;;5074864;28;20040;-76
2021/03/28 00:54:49;;;;;;;3.43;0.90;;;7.00;83.30;;;;;;5064030;28;20040;-77
2021/03/28 00:57:38;;;;;;;4.40;1.10;;;7.00;83.40;;;;;;5081293;28;20036;-77
2021/03/28 01:00:18;;;;;;;3.77;0.90;;;7.00;83.40;;;;;;5088811;28;20044;-74
2021/03/28 01:03:20;;;;;;;3.10;0.80;;;7.00;83.40;;;;;;5084056;28;20093;-76
2021/03/28 01:05:59;;;;;;;4.47;0.77;;;6.90;83.50;;;;;;5074697;28;20492;-76
2021/03/28 01:08:44;;;;;;;7.13;1.40;;;7.00;83.60;;;;;;5080481;28;20492;-76
2021/03/28 01:11:41;;;;;;;3.67;0.90;;;7.00;83.70;;;;;;5075466;28;20032;-76
2021/03/28 01:14:26;;;;;;;3.23;0.90;;;7.00;83.70;;;;;;5083377;28;20044;-76
2021/03/28 01:17:18;;;;;;;3.23;0.90;;;7.00;83.70;;;;;;5085756;28;20537;-69
2021/03/28 01:19:51;;;;;;;7.37;1.47;;;7.10;83.70;;;;;;5074593;28;20064;-69
2021/03/28 01:22:45;;;;;;;3.67;1.27;;;7.10;83.60;;;;;;5084794;28;20040;-69
2021/03/28 01:25:38;;;;;;;3.77;1.00;;;7.10;83.50;;;;;;5088906;28;20063;-69
2021/03/28 01:28:25;;;;;;;4.78;1.30;;;7.10;83.60;;;;;;5085740;28;20059;-69
2021/03/28 01:31:13;;;;;;;3.57;1.00;;;7.10;83.50;;;;;;5085406;28;20046;-70
2021/03/28 01:33:51;;;;;;;5.37;1.70;;;7.10;83.70;;;;;;5063156;28;20075;-76
2021/03/28 01:36:41;;;;;;;4.93;1.40;;;7.10;83.80;;;;;;5080607;28;20036;-76
2021/03/28 01:39:11;;;;;;;2.20;0.73;;;7.10;83.90;;;;;;5074184;28;20055;-77
2021/03/28 01:41:48;;;;;;;3.50;1.20;;;7.00;84.10;;;;;;5091833;28;20063;-73
2021/03/28 01:44:37;;;;;;;3.60;1.20;;;7.00;84.10;;;;;;5091453;28;20036;-73
2021/03/28 01:47:10;;;;;;;2.83;1.13;;;6.90;84.30;;;;;;5099791;28;20048;-73
2021/03/28 01:50:13;;;;;;;3.40;1.13;;;6.90;84.40;;;;;;5086710;28;20036;-72
2021/03/28 01:52:50;;;;;;;3.47;0.90;;;6.80;84.40;;;;;;5081588;28;20411;-73
2021/03/28 01:55:29;;;;;;;3.27;1.00;;;6.80;84.50;;;;;;5084350;28;20519;-73
2021/03/28 01:58:24;;;;;;;3.80;1.00;;;6.80;84.60;;;;;;5064258;28;20040;-73
2021/03/28 02:01:21;;;;;;;4.80;1.30;;;6.80;84.70;;;;;;5088018;28;20039;-73
2021/03/28 02:04:08;;;;;;;4.95;1.10;;;6.80;84.70;;;;;;5096578;28;20480;-73
2021/03/28 02:06:41;;;;;;;3.63;0.83;;;6.80;84.80;;;;;;5094660;28;20064;-73
2021/03/28 02:09:31;;;;;;;3.25;0.80;;;6.80;84.80;;;;;;5080193;28;20033;-74
2021/03/28 02:12:13;;;;;;;2.17;0.63;;;6.80;84.80;;;;;;5077859;28;20033;-72
2021/03/28 02:15:10;;;;;;;4.17;1.00;;;6.80;84.80;;;;;;5080072;28;20107;-73
2021/03/28 02:17:46;;;;;;;4.43;1.30;;;6.80;84.70;;;;;;5082949;28;20460;-73
2021/03/28 02:20:39;;;;;;;4.57;0.67;;;6.90;84.80;;;;;;5079658;28;20086;-72
2021/03/28 02:23:08;;;;;;;2.97;0.57;;;6.90;84.80;;;;;;5067291;28;20043;-72
2021/03/28 02:26:02;;;;;;;1.97;0.50;;;6.90;84.80;;;;;;5089516;28;20548;-73
2021/03/28 02:28:55;;;;;;;2.43;0.80;;;6.90;84.90;;;;;;5085957;28;20048;-73
2021/03/28 02:32:00;;;;;;;3.35;0.60;;;6.90;85.10;;;;;;5074225;28;20518;-73
2021/03/28 02:34:37;;;;;;;4.90;0.60;;;6.90;85.10;;;;;;5072882;28;20058;-73
2021/03/28 02:37:17;;;;;;;2.13;0.50;;;6.90;85.10;;;;;;5077979;28;20040;-73
2021/03/28 02:40:03;;;;;;;3.57;0.70;;;6.90;85.20;;;;;;5092435;28;20101;-72
2021/03/28 02:42:34;;;;;;;5.80;1.27;;;6.90;85.20;;;;;;5091640;28;20468;-73
2021/03/28 02:45:23;;;;;;;2.47;0.60;;;6.90;85.20;;;;;;5085110;28;20051;-72
2021/03/28 02:48:24;;;;;;;4.30;0.67;;;6.90;85.10;;;;;;5085933;28;20048;-73
2021/03/28 02:51:11;;;;;;;1.92;0.50;;;7.00;85.30;;;;;;5072292;28;20125;-73
2021/03/28 02:53:56;;;;;;;3.47;0.80;;;6.90;85.70;;;;;;5075957;28;20039;-72
2021/03/28 02:56:26;;;;;;;2.67;0.63;;;7.00;85.30;;;;;;5087034;28;20463;-73
2021/03/28 02:59:30;;;;;;;2.07;0.60;;;6.90;85.30;;;;;;5091093;28;20047;-73
2021/03/28 03:02:35;;;;;;;3.80;0.87;;;7.00;85.40;;;;;;5083852;28;20048;-72
2021/03/28 03:05:05;;;;;;;3.03;0.50;;;6.90;85.30;;;;;;5077833;28;20040;-68
2021/03/28 03:07:38;;;;;;;4.13;0.70;;;7.00;85.40;;;;;;5089240;28;20063;-68
2021/03/28 03:10:34;;;;;;;4.10;0.50;;;7.00;85.40;;;;;;5086802;28;20044;-68
2021/03/28 03:13:41;;;;;;;4.37;0.53;;;7.00;85.40;;;;;;5070298;28;20068;-68
2021/03/28 03:16:19;;;;;;;2.97;0.50;;;7.00;85.50;;;;;;5074356;28;20055;-72
2021/03/28 03:19:14;;;;;;;2.33;0.57;;;7.00;85.50;;;;;;5086235;28;20039;-73
2021/03/28 03:22:18;;;;;;;4.33;0.60;;;7.00;85.50;;;;;;5072558;28;20044;-73
2021/03/28 03:25:02;;;;;;;3.73;0.70;;;7.00;85.60;;;;;;5092096;28;20488;-72
2021/03/28 03:27:50;;;;;;;3.03;0.60;;;7.00;85.60;;;;;;5077114;28;20036;-72
2021/03/28 03:30:39;;;;;;;2.17;0.43;;;7.00;85.60;;;;;;5090589;28;20059;-72
2021/03/28 03:33:19;;;;;;;3.50;0.60;;;7.00;85.70;;;;;;5093398;28;20036;-73
2021/03/28 03:36:13;;;;;;;3.50;0.60;;;7.00;85.80;;;;;;5089751;28;20044;-73
2021/03/28 03:38:52;;;;;;;3.47;1.33;;;7.00;85.90;;;;;;5090049;28;20132;-72
2021/03/28 03:41:49;;;;;;;2.03;0.40;;;7.00;85.90;;;;;;5079491;28;20047;-72
2021/03/28 03:44:48;;;;;;;2.17;0.60;;;7.00;85.90;;;;;;5083612;28;20048;-72
2021/03/28 03:47:28;;;;;;;4.63;0.63;;;7.00;85.90;;;;;;5063781;28;20057;-73
2021/03/28 03:50:02;;;;;;;3.40;0.63;;;6.90;86.00;;;;;;5078996;28;20496;-72
2021/03/28 03:52:40;;;;;;;3.03;0.80;;;7.00;86.10;;;;;;5087837;28;20392;-72
2021/03/28 03:55:56;;;;;;;5.03;0.70;;;7.00;86.10;;;;;;5093686;28;20035;-72
2021/03/28 03:58:28;;;;;;;2.90;0.60;;;7.00;86.00;;;;;;5094773;28;20044;-73
2021/03/28 04:01:18;;;;;;;3.97;0.65;;;7.00;86.10;;;;;;5081655;28;20052;-73
2021/03/28 04:04:22;;;;;;;2.97;0.50;;;7.00;86.20;;;;;;5082711;28;20039;-72
2021/03/28 04:07:07;;;;;;;4.50;0.67;;;7.00;86.10;;;;;;5090878;28;20126;-73
2021/03/28 04:10:35;;;;;;;4.70;0.50;;;7.10;86.10;;;;;;5082076;28;20039;-72
2021/03/28 04:13:32;;;;;;;4.87;0.50;;;7.10;86.20;;;;;;5069991;28;20095;-72
2021/03/28 04:15:59;;;;;;;4.50;0.80;;;7.10;86.10;;;;;;5085937;28;20040;-72
2021/03/28 04:18:34;;;;;;;4.63;0.93;;;7.10;86.10;;;;;;5089950;28;20126;-72
2021/03/28 04:21:29;;;;;;;6.10;1.00;;;7.20;86.10;;;;;;5087862;28;20059;-68
2021/03/28 04:24:24;;;;;;;6.20;0.77;;;7.20;85.90;;;;;;5083438;28;20064;-68
2021/03/28 04:27:14;;;;;;;3.83;0.70;;;7.20;85.90;;;;;;5088286;28;20044;-68
2021/03/28 04:29:50;;;;;;;3.73;0.80;;;7.20;85.90;;;;;;5091805;28;20051;-72
2021/03/28 04:32:39;;;;;;;3.37;0.90;;;7.20;86.00;;;;;;5080442;28;20102;-73
2021/03/28 04:35:32;;;;;;;2.13;0.60;;;7.20;86.00;;;;;;5081349;28;20049;-73
2021/03/28 04:38:34;;;;;;;4.53;0.50;;;7.30;86.10;;;;;;5086222;28;20043;-73
2021/03/28 04:41:28;;;;;;;2.17;0.70;;;7.20;86.20;;;;;;5091393;28;20052;-73
2021/03/28 04:44:01;;;;;;;2.80;0.70;;;7.20;86.20;;;;;;5090034;28;20040;-74
2021/03/28 04:46:42;;;;;;;2.75;0.55;;;7.30;86.20;;;;;;5092994;28;20040;-74
2021/03/28 04:49:46;;;;;;;3.17;0.60;;;7.30;86.20;;;;;;5093770;28;20050;-74
2021/03/28 04:52:21;;;;;;;3.73;1.03;;;7.30;86.20;;;;;;5092471;28;20032;-72
2021/03/28 04:54:59;;;;;;;5.17;0.80;;;7.30;86.10;;;;;;5093896;28;20086;-72
2021/03/28 04:58:11;;;;;;;8.90;0.85;;;7.30;86.10;;;;;;5087284;28;20085;-72
2021/03/28 05:01:03;;;;;;;3.20;0.73;;;7.30;86.10;;;;;;5069216;28;20368;-72
2021/03/28 05:03:58;;;;;;;3.17;0.73;;;7.30;86.00;;;;;;5086113;28;20054;-72
2021/03/28 05:06:30;;;;;;;4.53;0.70;;;7.30;86.10;;;;;;5075818;28;20059;-72
2021/03/28 05:09:19;;;;;;;1.83;0.50;;;7.30;86.10;;;;;;5086495;28;20048;-73
2021/03/28 05:12:26;;;;;;;3.20;0.57;;;7.30;86.20;;;;;;5086756;28;20039;-72
2021/03/28 05:15:17;;;;;;;3.03;0.57;;;7.30;86.30;;;;;;5073544;28;20391;-73
2021/03/28 05:17:56;;;;;;;2.30;0.40;;;7.30;86.30;;;;;;5081788;28;20044;-72
2021/03/28 05:20:41;;;;;;;2.67;0.70;;;7.30;86.40;;;;;;5091708;28;20537;-73
2021/03/28 05:23:17;;;;;;;0.90;0.40;;;7.30;86.30;;;;;;5079456;28;20086;-73
2021/03/28 05:25:46;;;;;;;3.00;0.50;;;7.30;86.40;;;;;;5098687;28;20502;-73
2021/03/28 05:28:36;;;;;;;3.00;0.95;;;7.30;86.50;;;;;;5092137;28;20130;-73
2021/03/28 05:31:32;;;;;;;3.77;0.70;;;7.30;86.40;;;;;;5091356;28;20097;-73
2021/03/28 05:34:21;;;;;;;2.67;0.50;;;7.40;86.20;;;;;;5086535;28;20040;-73
2021/03/28 05:37:25;;;;;;;3.65;0.73;;;7.40;86.20;;;;;;5074805;28;20113;-72
2021/03/28 05:40:23;;;;;;;3.80;1.15;;;7.40;86.20;;;;;;5073631;28;20759;-73
2021/03/28 05:43:02;;;;;;;2.17;0.63;;;7.40;86.20;;;;;;5072650;28;20040;-73
2021/03/28 05:46:09;;;;;;;2.22;0.40;;;7.40;86.40;;;;;;5085704;28;20032;-73
2021/03/28 05:49:08;;;;;;;1.60;0.40;;;7.50;86.40;;;;;;5073349;28;20032;-73
2021/03/28 05:52:03;;;;;;;5.18;0.80;;;7.50;86.50;;;;;;5074840;28;20368;-73
2021/03/28 05:55:20;;;;;;;3.03;0.60;;;7.50;86.20;;;;;;5091167;28;20123;-72
2021/03/28 05:58:08;;;;;;;1.13;0.50;;;7.60;86.20;;;;;;5087412;28;20411;-72
2021/03/28 06:01:01;;;;;;;1.70;0.47;;;7.60;86.20;;;;;;5086128;28;20040;-72
2021/03/28 06:03:49;;;;;;;2.88;0.50;;;7.70;86.30;;;;;;5073226;28;20028;-72
2021/03/28 06:06:39;;;;;;;3.33;0.68;;;7.70;86.30;;;;;;5089313;28;20593;-72
2021/03/28 06:09:43;;;;;;;2.80;0.50;;;7.80;86.20;;;;;;5090290;28;20499;-73
2021/03/28 06:12:21;;;;;;;2.20;0.53;;;7.80;86.20;;;;;;5090236;28;20048;-73
2021/03/28 06:15:06;;;;;;;2.77;0.50;;;7.80;86.10;;;;;;5088508;28;20033;-73
2021/03/28 06:18:08;;;;;;;4.95;0.73;;;7.90;86.00;;;;;;5077353;28;20374;-72
2021/03/28 06:20:58;;;;;;;3.70;0.40;;;8.00;85.80;;;;;;5073822;28;20044;-72
2021/03/28 06:23:40;;;;;;;3.13;0.60;;;8.00;85.80;;;;;;5091496;28;20054;-72
2021/03/28 06:26:38;;;;;;;2.95;0.70;;;8.10;85.60;;;;;;5091671;28;20050;-72
2021/03/28 06:29:42;;;;;;;2.45;0.55;;;8.10;85.50;;;;;;5083139;28;20048;-74
2021/03/28 06:32:30;;;;;;;4.07;0.40;;;8.20;85.60;;;;;;5082237;28;20098;-73
2021/03/28 06:35:18;;;;;;;3.85;0.57;;;8.20;85.40;;;;;;5088856;28;20055;-74
2021/03/28 06:38:30;;;;;;;4.10;0.65;;;8.20;85.30;;;;;;5078666;28;20043;-73
2021/03/28 06:41:21;;;;;;;6.80;0.80;;;8.30;85.20;;;;;;5077950;28;20051;-74
2021/03/28 06:44:04;;;;;;;2.67;0.70;;;8.40;85.10;;;;;;5086467;28;20467;-73
2021/03/28 06:46:58;;;;;;;2.60;0.60;;;8.50;85.00;;;;;;5091745;28;20044;-73
2021/03/28 06:50:01;;;;;;;4.57;1.13;;;8.50;84.90;;;;;;5082996;28;20383;-74
2021/03/28 06:52:49;;;;;;;4.05;0.82;;;8.60;84.80;;;;;;5107493;28;20368;-75
2021/03/28 06:55:34;;;;;;;3.15;1.10;;;8.60;84.60;;;;;;5078153;28;20495;-74
2021/03/28 06:58:38;;;;;;;2.80;0.80;;;8.60;84.50;;;;;;5089573;28;20427;-75
2021/03/28 07:01:19;;;;;;;3.03;0.43;;;8.60;84.60;;;;;;5087737;28;20407;-75
2021/03/28 07:03:52;;;;;;;4.65;1.10;;;8.60;84.60;;;;;;5080513;28;20046;-73
2021/03/28 07:06:59;;;;;;;5.32;1.20;;;8.60;84.40;;;;;;5090827;28;20055;-73
2021/03/28 07:10:03;;;;;;;4.25;0.65;;;8.60;84.40;;;;;;5062943;28;20036;-73
2021/03/28 07:12:48;;;;;;;;;;;8.70;84.50;;;;;;5084446;28;20036;-74
2021/03/28 07:15:46;;;;;;;3.58;0.68;;;8.70;84.30;;;;;;5091307;28;19946;-73
2021/03/28 07:18:41;;;;;;;2.90;0.73;;;8.80;84.10;;;;;;5095050;28;20044;-73
2021/03/28 07:21:37;;;;;;;2.10;0.65;;;9.00;83.90;;;;;;5082710;28;20048;-73
2021/03/28 07:24:41;;;;;;;4.03;0.80;;;9.10;83.90;;;;;;5083485;28;20510;-74
2021/03/28 07:27:29;;;;;;;3.97;0.73;;;9.20;83.60;;;;;;5074487;28;20442;-69
2021/03/28 07:30:38;;;;;;;5.72;1.42;;;9.20;83.30;;;;;;5089346;28;20039;-69
2021/03/28 07:33:44;;;;;;;3.08;0.82;;;9.30;83.20;;;;;;5086551;28;20040;-74
2021/03/28 07:36:32;;;;;;;3.42;1.20;;;9.30;83.20;;;;;;5075387;28;20488;-70
2021/03/28 07:39:05;;;;;;;2.45;0.88;;;9.40;82.90;;;;;;5086528;28;20067;-70
2021/03/28 07:41:48;;;;;;;;;;;9.50;82.90;;;;;;5080104;28;20048;-69
2021/03/28 07:44:40;;;;;;;3.55;0.73;;;9.60;83.00;;;;;;5092993;28;19931;-69
2021/03/28 07:47:40;;;;;;;3.13;0.88;;;9.70;82.70;;;;;;5093437;28;20048;-69
2021/03/28 07:50:41;;;;;;;5.97;1.83;;;9.80;82.30;;;;;;5091776;28;20043;-69
2021/03/28 07:53:36;;;;;;;3.15;1.55;;;9.80;82.20;;;;;;5088834;28;20050;-70
2021/03/28 07:56:21;;;;;;;3.95;1.10;;;10.00;82.10;;;;;;5097065;28;20060;-74
2021/03/28 07:59:09;;;;;;;3.65;1.13;;;10.10;82.00;;;;;;5087898;28;20415;-74
2021/03/28 08:02:16;;;;;;;12.43;1.52;;;10.20;81.40;;;;;;5091157;28;20047;-74
2021/03/28 08:05:13;;;;;;;4.85;1.35;;;10.30;81.00;;;;;;5089746;28;20051;-71
2021/03/28 08:07:46;;;;;;;3.03;0.90;;;10.30;81.30;;;;;;5088126;28;20041;-71
2021/03/28 08:10:33;;;;;;;3.63;0.85;;;10.30;81.20;;;;;;5091766;28;20409;-70
2021/03/28 08:13:37;;;;;;;4.53;1.80;;;10.20;81.10;;;;;;5082804;28;20084;-69
2021/03/28 08:16:40;;;;;;;5.60;1.42;;;10.20;81.20;;;;;;5084218;28;20070;-70
2021/03/28 08:19:31;;;;;;;4.63;1.05;;;10.30;81.30;;;;;;5092588;28;20044;-69
2021/03/28 08:22:07;;;;;;;4.32;1.23;;;10.40;81.10;;;;;;5070162;28;20045;-70
2021/03/28 08:25:19;;;;;;;6.90;1.40;;;10.40;81.00;;;;;;5085279;28;20058;-73
2021/03/28 08:28:24;;;;;;;5.03;1.10;;;10.50;80.70;;;;;;5091519;28;20046;-74
2021/03/28 08:31:18;;;;;;;3.45;1.20;;;10.50;80.70;;;;;;5072867;28;20052;-75
2021/03/28 08:34:12;;;;;;;7.18;1.85;;;10.60;80.80;;;;;;5088652;28;20487;-74
2021/03/28 08:36:55;;;;;;;5.07;2.08;;;10.70;80.50;;;;;;5084042;28;20050;-74
2021/03/28 08:39:59;;;;;;;5.00;2.17;;;10.70;80.20;;;;;;5081863;28;20127;-75
2021/03/28 08:42:49;;;;;;;5.03;1.65;;;10.80;80.10;;;;;;5075194;28;20301;-75
2021/03/28 08:45:18;;;;;;;6.07;1.90;;;10.90;79.50;;;;;;5084084;28;20467;-74
2021/03/28 08:47:57;;;;;;;7.85;1.95;;;11.00;79.60;;;;;;5086577;28;20051;-74
2021/03/28 08:50:35;;;;;;;5.70;1.67;;;11.10;79.00;;;;;;5086822;28;20110;-74
2021/03/28 08:53:17;;;;;;;7.80;1.73;;;11.20;78.70;;;;;;5087448;28;20040;-73
2021/03/28 08:56:22;;;;;;;5.97;1.20;;;11.30;78.50;;;;;;5083375;28;20487;-73
2021/03/28 08:58:51;;;;;;;2.45;0.88;;;11.40;78.20;;;;;;5091690;28;20039;-74
2021/03/28 09:01:38;;;;;;;4.35;1.00;;;11.50;78.20;;;;;;5089692;28;20037;-74
2021/03/28 09:04:22;;;;;;;3.97;1.30;;;11.60;77.90;;;;;;5091656;28;20044;-74
2021/03/28 09:07:06;;;;;;;6.60;1.40;;;11.70;77.40;;;;;;5080296;28;20036;-75
2021/03/28 09:10:07;;;;;;;3.95;1.40;;;11.60;76.70;;;;;;5087802;28;20043;-74
2021/03/28 09:13:09;;;;;;;4.38;1.08;;;11.60;76.60;;;;;;5074377;28;20040;-74
2021/03/28 09:16:14;;;;;;;6.47;1.05;;;11.50;76.80;;;;;;5078977;28;20036;-75
2021/03/28 09:18:52;;;;;;;2.63;0.98;;;11.60;76.80;;;;;;5080706;28;20135;-74
2021/03/28 09:21:28;;;;;;;3.50;1.02;;;11.70;77.00;;;;;;5089088;28;20044;-73
2021/03/28 09:24:32;;;;;;;3.03;1.00;;;11.90;76.60;;;;;;5089574;28;20044;-74
2021/03/28 09:27:30;;;;;;;4.65;1.30;;;12.00;77.10;;;;;;5074127;28;20048;-74
2021/03/28 09:30:18;;;;;;;6.25;1.10;;;12.10;75.60;;;;;;5082014;28;20039;-69
2021/03/28 09:32:54;;;;;;;4.70;1.30;;;12.20;75.30;;;;;;5091799;28;20036;-69
2021/03/28 09:35:35;;;;;;;7.95;1.70;;;12.30;73.80;;;;;;5084167;28;20044;-69
2021/03/28 09:38:30;;;;;;;5.40;1.10;;;12.50;73.90;;;;;;5091749;28;20153;-69
2021/03/28 09:41:06;;;;;;;5.32;1.25;;;12.60;73.30;;;;;;5078810;28;20052;-69
2021/03/28 09:43:45;;;;;;;5.35;1.00;;;12.70;72.30;;;;;;5082709;28;20051;-69
2021/03/28 09:46:37;;;;;;;5.80;1.30;;;12.70;71.90;;;;;;5085976;28;20047;-69
2021/03/28 09:49:24;;;;;;;6.25;1.15;;;12.70;71.30;;;;;;5090219;28;20028;-69
2021/03/28 09:51:54;;;;;;;6.28;1.50;;;12.70;70.70;;;;;;5078408;28;20395;-69
2021/03/28 09:54:29;;;;;;;8.07;1.52;;;12.70;70.80;;;;;;5085025;28;20513;-69
2021/03/28 09:57:14;;;;;;;8.18;1.55;;;12.80;70.30;;;;;;5079964;28;20480;-69
2021/03/28 09:59:59;;;;;;;8.00;1.40;;;12.80;69.60;;;;;;5090563;28;20039;-70
2021/03/28 10:02:44;;;;;;;5.72;1.08;;;12.90;69.60;;;;;;5080893;28;20493;-69
2021/03/28 10:05:31;;;;;;;7.80;1.83;;;12.90;68.90;;;;;;5082630;28;20514;-69
2021/03/28 10:08:08;;;;;;;8.57;1.38;;;12.90;68.60;;;;;;5085238;28;20040;-69
2021/03/28 10:11:16;;;;;;;5.43;1.33;;;12.90;68.30;;;;;;5084382;28;20051;-68
2021/03/28 10:14:02;;;;;;;4.57;0.95;;;12.90;68.50;;;;;;5067004;28;20044;-68
2021/03/28 10:17:09;;;;;;;5.38;0.98;;;13.00;66.40;;;;;;5065106;28;20049;-69
2021/03/28 10:19:43;;;;;;;5.32;1.05;;;13.00;66.30;;;;;;5075130;28;20040;-69
2021/03/28 10:22:26;;;;;;;5.20;1.25;;;13.10;65.90;;;;;;5080146;28;20044;-71
2021/03/28 10:25:21;;;;;;;5.57;0.90;;;13.20;65.30;;;;;;5080850;28;20059;-69
2021/03/28 10:28:11;;;;;;;3.58;1.17;;;13.40;64.70;;;;;;5081104;28;20097;-72
2021/03/28 10:31:22;;;;;;;5.70;0.70;;;13.50;64.10;;;;;;5083720;28;20268;-70
2021/03/28 10:34:05;;;;;;;4.78;0.73;;;13.60;64.70;;;;;;5087477;28;20036;-69
2021/03/28 10:37:11;;;;;;;8.30;0.77;;;13.70;63.30;;;;;;5089108;28;20040;-69
2021/03/28 10:39:41;;;;;;;4.30;0.80;;;13.80;63.30;;;;;;5086547;28;20040;-70
2021/03/28 10:42:38;;;;;;;3.58;0.60;;;13.80;63.40;;;;;;5089347;28;20044;-69
2021/03/28 10:45:14;;;;;;;5.30;0.88;;;13.90;61.80;;;;;;5091388;28;20113;-69
2021/03/28 10:47:56;;;;;;;4.82;0.80;;;13.80;60.90;;;;;;5092268;28;20047;-69
2021/03/28 10:50:56;;;;;;;2.30;0.70;;;13.80;61.20;;;;;;5093697;28;20058;-70
2021/03/28 10:53:36;;;;;;;3.90;0.80;;;13.70;60.40;;;;;;5091323;28;20098;-70
2021/03/28 10:56:35;;;;;;;4.15;0.60;;;13.60;60.70;;;;;;5090814;28;20075;-70
2021/03/28 10:59:42;;;;;;;8.27;0.80;;;13.70;61.00;;;;;;5089855;28;20072;-70
2021/03/28 11:02:53;;;;;;;4.82;1.00;;;13.60;60.80;;;;;;5090227;28;20043;-70
2021/03/28 11:05:19;;;;;;;4.72;0.98;;;13.60;60.90;;;;;;5090647;28;20043;-70
2021/03/28 11:08:16;;;;;;;3.83;0.90;;;13.50;61.20;;;;;;5088353;28;20055;-70
2021/03/28 11:11:11;;;;;;;7.18;1.45;;;13.60;61.40;;;;;;5084671;28;20118;-70
2021/03/28 11:13:56;;;;;;;4.40;0.93;;;13.40;61.30;;;;;;5090317;28;20040;-70
2021/03/28 11:16:57;;;;;;;6.20;0.98;;;13.40;62.00;;;;;;5087619;28;20040;-70
2021/03/28 11:19:51;;;;;;;3.88;0.85;;;13.30;62.50;;;;;;5091675;28;20442;-70
2021/03/28 11:22:52;;;;;;;4.10;0.73;;;13.30;62.80;;;;;;5088758;28;20070;-70
2021/03/28 11:25:28;;;;;;;2.22;0.93;;;13.10;63.00;;;;;;5083659;28;20060;-70
2021/03/28 11:28:25;;;;;;;3.88;0.90;;;13.10;63.40;;;;;;5084385;28;20044;-70
2021/03/28 11:31:09;;;;;;;2.90;0.88;;;13.10;63.40;;;;;;5083610;28;20454;-71
2021/03/28 11:33:42;;;;;;;3.40;0.75;;;13.00;63.70;;;;;;5081822;28;20045;-70
2021/03/28 11:36:31;;;;;;;5.68;0.82;;;12.90;64.20;;;;;;5078744;28;20033;-70
2021/03/28 11:39:09;;;;;;;5.05;0.77;;;12.70;65.50;;;;;;5082161;28;20041;-69
2021/03/28 11:42:18;;;;;;;2.03;0.50;;;12.50;65.70;;;;;;5085643;28;20059;-70
2021/03/28 11:45:01;;;;;;;5.63;0.80;;;12.30;66.40;;;;;;5082209;28;20586;-69
2021/03/28 11:47:48;;;;;;;4.28;0.57;;;12.20;67.10;;;;;;5081510;28;20037;-69
2021/03/28 11:50:15;;;;;;;4.75;0.80;;;12.10;67.60;;;;;;5074621;28;20040;-68
2021/03/28 11:52:54;;;;;;;6.78;0.63;;;12.00;68.00;;;;;;5083195;28;20056;-68
2021/03/28 11:55:34;;;;;;;5.20;0.70;;;11.90;68.50;;;;;;5082232;28;20139;-68
2021/03/28 11:58:21;;;;;;;4.40;0.80;;;11.90;68.70;;;;;;5088569;28;20060;-70
2021/03/28 12:00:55;;;;;;;3.40;0.63;;;11.90;68.70;;;;;;5087186;28;20105;-69
2021/03/28 12:03:22;;;;;;;4.60;0.80;;;11.90;68.80;;;;;;5081502;28;20044;-69
2021/03/28 12:05:49;;;;;;;2.22;0.52;;;12.00;68.90;;;;;;5080744;28;20111;-69
2021/03/28 12:08:17;;;;;;;3.33;0.68;;;12.10;68.60;;;;;;5086121;28;20059;-68
2021/03/28 12:10:45;;;;;;;4.45;0.88;;;12.30;68.40;;;;;;5083778;28;20119;-69
2021/03/28 12:13:17;;;;;;;3.72;0.65;;;12.40;67.90;;;;;;5084553;28;20071;-69
2021/03/28 12:15:46;;;;;;;3.70;0.90;;;12.50;67.80;;;;;;5085373;28;20036;-69
2021/03/28 12:18:33;;;;;;;5.07;0.90;;;12.60;67.70;;;;;;5064196;28;20513;-69
2021/03/28 12:21:02;;;;;;;3.10;0.98;;;12.60;67.20;;;;;;5079376;28;20036;-69
2021/03/28 12:23:56;;;;;;;3.75;1.17;;;12.60;67.20;;;;;;5075954;28;20180;-69
2021/03/28 12:26:37;;;;;;;5.10;0.80;;;12.60;67.00;;;;;;5084091;28;20039;-73
2021/03/28 12:29:14;;;;;;;2.92;0.90;;;12.50;66.80;;;;;;5082675;28;20059;-73
2021/03/28 12:31:42;;;;;;;5.40;0.90;;;12.50;66.80;;;;;;5078070;28;20047;-73
2021/03/28 12:34:47;;;;;;;5.63;1.17;;;12.50;66.80;;;;;;5082488;28;20050;-73
2021/03/28 12:37:24;;;;;;;4.55;1.20;;;12.50;66.60;;;;;;5048291;28;20087;-72
2021/03/28 12:40:05;;;;;;;7.80;1.13;;;12.50;66.30;;;;;;5054879;28;20040;-71
2021/03/28 12:42:35;;;;;;;4.38;1.52;;;12.40;66.30;;;;;;5070981;28;20048;-73
2021/03/28 12:45:08;;;;;;;4.20;0.85;;;12.50;66.50;;;;;;5084255;28;20055;-71
2021/03/28 12:47:47;;;;;;;4.65;0.90;;;12.50;66.50;;;;;;5082709;28;20047;-72
2021/03/28 12:50:13;;;;;;;3.88;1.38;;;12.50;66.60;;;;;;5078188;28;20029;-73
2021/03/28 12:52:45;;;;;;;4.20;0.90;;;12.50;66.60;;;;;;5084965;28;20136;-75
2021/03/28 12:55:17;;;;;;;5.45;0.77;;;12.50;66.70;;;;;;5071568;28;20090;-73
2021/03/28 12:57:49;;;;;;;4.10;1.40;;;12.50;66.80;;;;;;5079841;28;20052;-76
2021/03/28 13:00:40;;;;;;;5.30;1.60;;;12.50;66.30;;;;;;5061053;28;20293;-73
2021/03/28 13:03:21;;;;;;;5.25;1.00;;;12.50;66.30;;;;;;5080562;28;20044;-75
2021/03/28 13:06:30;;;;;;;5.68;1.27;;;12.50;66.40;;;;;;5081693;28;20045;-74
2021/03/28 13:09:02;;;;;;;3.22;1.00;;;12.50;66.00;;;;;;5069870;28;20088;-77
2021/03/28 13:11:43;;;;;;;5.05;1.48;;;12.60;66.30;;;;;;5088395;28;20032;-75
2021/03/28 13:14:33;;;;;;;5.10;0.73;;;12.60;66.00;;;;;;5095162;28;20037;-75
2021/03/28 13:17:22;;;;;;;3.75;0.88;;;12.50;65.90;;;;;;5081936;28;20139;-75
2021/03/28 13:19:53;;;;;;;2.92;1.20;;;12.50;66.20;;;;;;5084840;28;20131;-74
2021/03/28 13:22:38;;;;;;;5.93;1.27;;;12.50;66.30;;;;;;5083549;28;20117;-78
2021/03/28 13:25:17;;;;;;;8.30;1.00;;;12.50;66.10;;;;;;5090279;28;20040;-73
2021/03/28 13:27:46;;;;;;;4.53;0.80;;;12.50;66.20;;;;;;5084011;28;20048;-77
2021/03/28 13:30:23;;;;;;;4.15;0.98;;;12.50;66.40;;;;;;5090204;28;20472;-74
2021/03/28 13:32:52;;;;;;;3.10;0.70;;;12.50;66.40;;;;;;5066495;28;20036;-72
2021/03/28 13:35:40;;;;;;;4.00;0.88;;;12.50;66.50;;;;;;5075211;28;20068;-74
2021/03/28 13:38:26;;;;;;;3.70;0.80;;;12.50;66.40;;;;;;5086308;28;20131;-76
2021/03/28 13:41:00;;;;;;;3.60;0.90;;;12.50;66.30;;;;;;5062177;28;20510;-73
2021/03/28 13:43:28;;;;;;;6.30;1.10;;;12.50;66.10;;;;;;5079957;28;20040;-72
2021/03/28 13:46:12;;;;;;;3.67;1.00;;;12.50;66.20;;;;;;5080597;28;20063;-73
2021/03/28 13:48:40;;;;;;;4.38;1.00;;;12.50;66.20;;;;;;5083028;28;20094;-72
2021/03/28 13:51:12;;;;;;;6.15;0.80;;;12.50;66.30;;;;;;5083992;28;20048;-69
2021/03/28 13:53:45;;;;;;;;;;;12.50;66.40;;;;;;5077868;28;20037;-69
2021/03/28 13:56:18;;;;;;;;;;;12.50;66.20;;;;;;5074178;28;19948;-75
2021/03/28 13:59:10;;;;;;;2.83;0.90;;;12.50;66.40;;;;;;5079484;28;19924;-73
2021/03/28 14:01:40;;;;;;;3.05;0.70;;;12.50;67.00;;;;;;5087733;28;20078;-74
2021/03/28 14:04:24;;;;;;;8.20;1.63;;;12.50;66.40;;;;;;5091143;28;20063;-69
2021/03/28 14:07:24;;;;;;;5.80;1.00;;;12.50;66.30;;;;;;5082945;28;20048;-70
2021/03/28 14:09:56;;;;;;;3.25;0.65;;;12.50;66.40;;;;;;5087493;28;20050;-71
2021/03/28 14:12:48;;;;;;;2.10;0.70;;;12.50;66.50;;;;;;5081897;28;20044;-69
2021/03/28 14:15:20;;;;;;;5.45;0.80;;;12.50;66.70;;;;;;5069660;28;20074;-69
2021/03/28 14:18:32;;;;;;;4.97;0.70;;;12.50;66.90;;;;;;5087121;28;20495;-69
2021/03/28 14:21:23;;;;;;;4.88;0.65;;;12.50;67.00;;;;;;5069027;28;20052;-70
2021/03/28 14:23:59;;;;;;;3.63;0.60;;;12.50;67.20;;;;;;5065014;28;20043;-75
2021/03/28 14:26:34;;;;;;;2.45;0.45;;;12.60;67.40;;;;;;5077985;28;20148;-70
2021/03/28 14:29:21;;;;;;;;;;;12.60;67.50;;;;;;5083863;28;20031;-68
2021/03/28 14:31:55;;;;;;;7.80;1.88;;;12.60;67.40;;;;;;5075870;28;19928;-68
2021/03/28 14:34:46;;;;;;;3.08;0.80;;;12.70;67.20;;;;;;5084685;28;20036;-69